createdAt,value
2022-08-03T00:00:29.481Z,21.17
2022-08-03T00:02:56.705Z,21.10
2022-08-03T00:05:23.813Z,21.03
2022-08-03T00:07:51.012Z,20.89
2022-08-03T00:10:19.992Z,20.55
2022-08-03T00:12:47.005Z,20.69
2022-08-03T00:15:16.323Z,20.89
2022-08-03T00:17:53.751Z,20.86
2022-08-03T00:20:24.479Z,20.76
2022-08-03T00:22:51.923Z,20.85
2022-08-03T00:25:19.337Z,20.59
2022-08-03T00:27:48.348Z,20.69
2022-08-03T00:30:16.825Z,20.59
2022-08-03T00:32:45.371Z,20.74
2022-08-03T00:35:26.614Z,20.56
2022-08-03T00:38:00.166Z,20.41
2022-08-03T00:40:27.649Z,20.29
2022-08-03T00:42:59.189Z,20.20
2022-08-03T00:45:31.923Z,20.24
2022-08-03T00:47:59.481Z,20.28
2022-08-03T00:50:29.397Z,20.11
2022-08-03T00:52:59.372Z,20.16
2022-08-03T00:55:27.045Z,20.11
2022-08-03T00:57:54.444Z,20.40
2022-08-03T01:00:25.087Z,20.34
2022-08-03T01:02:53.234Z,20.45
2022-08-03T01:05:21.847Z,20.50
2022-08-03T01:08:04.229Z,20.18
2022-08-03T01:10:54.457Z,20.04
2022-08-03T01:14:01.176Z,20.25
2022-08-03T01:16:17.125Z,20.22
2022-08-03T01:18:52.330Z,20.19
2022-08-03T01:21:45.864Z,19.93
2022-08-03T01:24:44.412Z,19.97
2022-08-03T01:27:14.067Z,19.81
2022-08-03T01:30:02.793Z,20.04
2022-08-03T01:33:00.998Z,19.98
2022-08-03T01:35:53.783Z,19.89
2022-08-03T01:38:34.291Z,19.90
2022-08-03T01:41:33.067Z,19.74
2022-08-03T01:44:29.459Z,19.67
2022-08-03T01:46:51.553Z,19.80
2022-08-03T01:49:18.773Z,19.79
2022-08-03T01:51:56.685Z,19.88
2022-08-03T01:54:37.729Z,19.79
2022-08-03T01:57:05.943Z,19.62
2022-08-03T01:59:36.357Z,19.61
2022-08-03T02:02:29.868Z,19.65
2022-08-03T02:04:55.567Z,19.62
2022-08-03T02:07:24.627Z,19.52
2022-08-03T02:09:53.223Z,19.65
2022-08-03T02:12:22.174Z,19.65
2022-08-03T02:14:50.605Z,19.76
2022-08-03T02:17:19.494Z,19.65
2022-08-03T02:20:08.942Z,19.72
2022-08-03T02:22:39.104Z,19.70
2022-08-03T02:25:09.247Z,19.64
2022-08-03T02:27:43.706Z,19.46
2022-08-03T02:30:13.594Z,19.56
2022-08-03T02:32:44.195Z,19.28
2022-08-03T02:35:13.851Z,19.41
2022-08-03T02:37:45.016Z,19.53
2022-08-03T02:40:19.000Z,19.58
2022-08-03T02:42:50.242Z,19.37
2022-08-03T02:45:19.903Z,19.32
2022-08-03T02:47:54.361Z,19.34
2022-08-03T02:50:23.992Z,19.14
2022-08-03T02:52:51.909Z,19.14
2022-08-03T02:55:21.252Z,19.07
2022-08-03T02:57:49.851Z,19.14
2022-08-03T03:00:27.084Z,19.08
2022-08-03T03:02:58.605Z,18.99
2022-08-03T03:05:52.043Z,19.04
2022-08-03T03:08:26.017Z,19.13
2022-08-03T03:10:59.931Z,19.10
2022-08-03T03:13:28.593Z,18.77
2022-08-03T03:15:59.553Z,18.93
2022-08-03T03:18:28.924Z,18.98
2022-08-03T03:20:57.833Z,18.84
2022-08-03T03:23:26.704Z,18.98
2022-08-03T03:25:56.019Z,18.81
2022-08-03T03:28:23.673Z,18.89
2022-08-03T03:30:53.141Z,18.96
2022-08-03T03:33:21.585Z,18.74
2022-08-03T03:35:49.412Z,18.70
2022-08-03T03:38:16.573Z,18.86
2022-08-03T03:40:43.901Z,18.76
2022-08-03T03:43:12.647Z,18.53
2022-08-03T03:45:43.174Z,18.66
2022-08-03T03:48:11.084Z,18.77
2022-08-03T03:50:40.980Z,18.61
2022-08-03T03:53:12.779Z,18.58
2022-08-03T03:56:02.064Z,18.77
2022-08-03T03:58:28.137Z,18.65
2022-08-03T04:00:55.323Z,18.43
2022-08-03T04:03:22.499Z,18.43
2022-08-03T04:06:08.383Z,18.31
2022-08-03T04:08:54.201Z,18.11
2022-08-03T04:11:38.236Z,18.40
2022-08-03T04:14:13.357Z,18.30
2022-08-03T04:16:45.269Z,18.50
2022-08-03T04:19:22.768Z,18.64
2022-08-03T04:21:52.951Z,18.75
2022-08-03T04:24:22.372Z,18.76
2022-08-03T04:26:55.090Z,18.83
2022-08-03T04:29:22.454Z,19.01
2022-08-03T04:31:51.803Z,18.78
2022-08-03T04:34:18.831Z,18.87
2022-08-03T04:36:50.358Z,18.91
2022-08-03T04:39:28.069Z,19.08
2022-08-03T04:42:04.722Z,19.05
2022-08-03T04:44:42.501Z,19.09
2022-08-03T04:47:09.701Z,19.05
2022-08-03T04:49:38.370Z,18.84
2022-08-03T04:52:07.965Z,19.05
2022-08-03T04:54:42.507Z,19.25
2022-08-03T04:57:22.400Z,19.32
2022-08-03T04:59:58.183Z,19.38
2022-08-03T05:02:29.448Z,19.34
2022-08-03T05:04:56.848Z,19.37
2022-08-03T05:07:24.797Z,19.40
2022-08-03T05:10:01.763Z,19.44
2022-08-03T05:12:32.718Z,19.61
2022-08-03T05:15:01.408Z,19.67
2022-08-03T05:17:28.906Z,19.81
2022-08-03T05:19:56.079Z,19.87
2022-08-03T05:22:23.971Z,20.01
2022-08-03T05:24:51.083Z,20.10
2022-08-03T05:27:21.516Z,20.14
2022-08-03T05:29:50.187Z,20.23
2022-08-03T05:32:18.273Z,20.23
2022-08-03T05:34:45.637Z,20.11
2022-08-03T05:37:12.812Z,20.29
2022-08-03T05:39:39.946Z,20.42
2022-08-03T05:42:07.270Z,20.46
2022-08-03T05:44:34.411Z,20.44
2022-08-03T05:47:01.555Z,20.52
2022-08-03T05:49:28.722Z,20.65
2022-08-03T05:52:00.276Z,20.67
2022-08-03T05:54:56.341Z,20.77
2022-08-03T05:57:25.771Z,20.78
2022-08-03T05:59:53.944Z,20.84
2022-08-03T06:02:26.707Z,20.94
2022-08-03T06:04:54.103Z,21.06
2022-08-03T06:07:21.358Z,21.15
2022-08-03T06:10:33.782Z,21.23
2022-08-03T06:12:36.268Z,21.34
2022-08-03T06:15:04.963Z,21.42
2022-08-03T06:17:37.349Z,21.53
2022-08-03T06:20:06.173Z,21.57
2022-08-03T06:22:33.552Z,21.64
2022-08-03T06:25:04.970Z,21.68
2022-08-03T06:27:37.650Z,21.78
2022-08-03T06:30:08.807Z,21.88
2022-08-03T06:32:39.059Z,21.98
2022-08-03T06:35:07.811Z,21.94
2022-08-03T06:37:45.806Z,22.13
2022-08-03T06:40:14.911Z,22.17
2022-08-03T06:42:49.242Z,22.28
2022-08-03T06:45:17.535Z,22.43
2022-08-03T06:47:44.782Z,22.50
2022-08-03T06:50:16.583Z,22.62
2022-08-03T06:52:45.371Z,22.72
2022-08-03T06:55:12.626Z,22.81
2022-08-03T06:57:39.847Z,22.87
2022-08-03T07:00:12.151Z,22.89
2022-08-03T07:02:39.948Z,23.01
2022-08-03T07:05:08.304Z,23.16
2022-08-03T07:07:36.039Z,23.30
2022-08-03T07:10:05.282Z,23.34
2022-08-03T07:12:32.937Z,23.51
2022-08-03T07:15:02.582Z,23.53
2022-08-03T07:17:31.869Z,23.64
2022-08-03T07:19:59.773Z,23.75
2022-08-03T07:22:27.038Z,23.71
2022-08-03T07:24:54.340Z,23.69
2022-08-03T07:27:21.524Z,23.86
2022-08-03T07:29:48.855Z,24.00
2022-08-03T07:32:16.077Z,24.16
2022-08-03T07:34:43.371Z,24.35
2022-08-03T07:37:11.273Z,24.44
2022-08-03T07:39:38.405Z,24.59
2022-08-03T07:42:05.628Z,24.62
2022-08-03T07:44:32.748Z,24.62
2022-08-03T07:46:59.973Z,24.74
2022-08-03T07:49:31.149Z,24.86
2022-08-03T07:52:17.672Z,24.83
2022-08-03T07:54:45.033Z,24.68
2022-08-03T07:57:12.251Z,24.77
2022-08-03T07:59:49.115Z,24.94
2022-08-03T08:02:27.381Z,25.06
2022-08-03T08:04:54.979Z,25.11
2022-08-03T08:07:22.312Z,24.98
2022-08-03T08:09:49.395Z,25.05
2022-08-03T08:12:16.994Z,25.13
2022-08-03T08:14:46.661Z,25.22
2022-08-03T08:17:14.184Z,25.40
2022-08-03T08:19:46.698Z,25.36
2022-08-03T08:22:23.479Z,25.47
2022-08-03T08:24:59.351Z,25.41
2022-08-03T08:27:26.514Z,25.53
2022-08-03T08:29:55.313Z,25.52
2022-08-03T08:32:23.628Z,25.80
2022-08-03T08:34:50.948Z,25.80
2022-08-03T08:37:18.087Z,25.94
2022-08-03T08:39:45.229Z,25.91
2022-08-03T08:42:12.370Z,25.82
2022-08-03T08:44:39.634Z,25.94
2022-08-03T08:47:08.606Z,26.00
2022-08-03T08:49:39.446Z,26.03
2022-08-03T08:52:24.853Z,26.12
2022-08-03T08:54:56.853Z,25.95
2022-08-03T08:57:42.481Z,26.10
2022-08-03T09:00:14.436Z,26.16
2022-08-03T09:02:43.566Z,25.99
2022-08-03T09:05:14.290Z,25.96
2022-08-03T09:07:45.799Z,26.17
2022-08-03T09:10:15.834Z,26.11
2022-08-03T09:12:44.675Z,26.33
2022-08-03T09:15:17.936Z,26.38
2022-08-03T09:17:50.381Z,26.56
2022-08-03T09:20:19.715Z,26.73
2022-08-03T09:22:57.545Z,26.72
2022-08-03T09:25:39.757Z,26.66
2022-08-03T09:28:10.379Z,26.78
2022-08-03T09:30:43.062Z,26.67
2022-08-03T09:33:12.375Z,26.69
2022-08-03T09:35:57.408Z,26.83
2022-08-03T09:38:28.558Z,26.86
2022-08-03T09:41:00.398Z,26.78
2022-08-03T09:43:29.613Z,26.97
2022-08-03T09:46:05.116Z,26.86
2022-08-03T09:48:36.691Z,27.08
2022-08-03T09:51:12.766Z,27.25
2022-08-03T09:53:57.231Z,27.28
2022-08-03T09:56:44.571Z,27.41
2022-08-03T09:59:13.379Z,27.47
2022-08-03T10:01:41.851Z,27.30
2022-08-03T10:04:18.251Z,27.04
2022-08-03T10:06:46.701Z,27.29
2022-08-03T10:09:15.918Z,27.41
2022-08-03T10:11:44.444Z,27.76
2022-08-03T10:14:19.498Z,27.62
2022-08-03T10:16:47.978Z,27.57
2022-08-03T10:19:15.826Z,27.58
2022-08-03T10:21:49.999Z,27.70
2022-08-03T10:24:20.141Z,27.62
2022-08-03T10:26:49.940Z,27.53
2022-08-03T10:29:24.947Z,27.90
2022-08-03T10:31:58.241Z,27.95
2022-08-03T10:34:35.175Z,27.90
2022-08-03T10:37:07.884Z,28.00
2022-08-03T10:39:35.985Z,28.21
2022-08-03T10:42:04.157Z,28.25
2022-08-03T10:44:39.974Z,28.49
2022-08-03T10:47:10.165Z,28.40
2022-08-03T10:49:38.192Z,28.48
2022-08-03T10:52:13.682Z,28.49
2022-08-03T10:55:12.077Z,28.48
2022-08-03T10:57:45.842Z,28.39
2022-08-03T11:00:19.438Z,28.47
2022-08-03T11:03:14.054Z,28.29
2022-08-03T11:05:43.429Z,28.24
2022-08-03T11:08:35.102Z,28.80
2022-08-03T11:11:28.784Z,29.09
2022-08-03T11:14:00.756Z,29.17
2022-08-03T11:16:29.448Z,29.16
2022-08-03T11:18:58.269Z,29.25
2022-08-03T11:21:43.827Z,29.46
2022-08-03T11:24:10.854Z,29.13
2022-08-03T11:26:38.365Z,29.44
2022-08-03T11:29:30.808Z,29.67
2022-08-03T11:31:58.585Z,29.07
2022-08-03T11:34:26.094Z,29.13
2022-08-03T11:37:20.593Z,29.40
2022-08-03T11:39:50.191Z,29.54
2022-08-03T11:42:23.455Z,29.75
2022-08-03T11:44:51.756Z,29.72
2022-08-03T11:47:21.175Z,29.19
2022-08-03T11:49:49.458Z,29.55
2022-08-03T11:52:17.691Z,30.08
2022-08-03T11:54:44.987Z,29.83
2022-08-03T11:57:12.315Z,29.58
2022-08-03T11:59:39.555Z,29.77
2022-08-03T12:02:11.250Z,30.51
2022-08-03T12:05:01.280Z,30.56
2022-08-03T12:08:03.689Z,30.58
2022-08-03T12:10:17.345Z,30.60
2022-08-03T12:12:46.651Z,30.75
2022-08-03T12:15:14.102Z,30.87
2022-08-03T12:17:41.776Z,30.77
2022-08-03T12:20:10.375Z,31.04
2022-08-03T12:22:40.209Z,31.24
2022-08-03T12:25:09.027Z,31.20
2022-08-03T12:27:36.449Z,30.87
2022-08-03T12:30:04.956Z,30.94
2022-08-03T12:32:32.128Z,30.62
2022-08-03T12:35:01.608Z,30.91
2022-08-03T12:37:29.580Z,30.39
2022-08-03T12:40:05.336Z,30.77
2022-08-03T12:42:37.749Z,31.06
2022-08-03T12:45:27.330Z,30.97
2022-08-03T12:47:58.855Z,31.05
2022-08-03T12:50:31.465Z,30.55
2022-08-03T12:53:01.084Z,30.51
2022-08-03T12:55:56.537Z,30.72
2022-08-03T12:58:36.600Z,31.11
2022-08-03T13:01:09.710Z,31.62
2022-08-03T13:03:43.394Z,31.65
2022-08-03T13:06:15.777Z,31.63
2022-08-03T13:08:44.327Z,31.45
2022-08-03T13:11:22.249Z,31.03
2022-08-03T13:13:50.945Z,31.00
2022-08-03T13:16:19.448Z,30.96
2022-08-03T13:18:47.117Z,31.18
2022-08-03T13:21:16.410Z,31.57
2022-08-03T13:23:43.947Z,31.61
2022-08-03T13:26:12.111Z,31.65
2022-08-03T13:28:39.847Z,31.78
2022-08-03T13:31:07.259Z,32.38
2022-08-03T13:33:34.481Z,32.29
2022-08-03T13:36:01.640Z,32.26
2022-08-03T13:38:28.858Z,32.58
2022-08-03T13:40:56.005Z,32.28
2022-08-03T13:43:23.247Z,32.80
2022-08-03T13:45:53.701Z,33.00
2022-08-03T13:48:37.308Z,32.90
2022-08-03T13:51:22.244Z,33.13
2022-08-03T13:53:51.321Z,33.03
2022-08-03T13:56:18.513Z,32.13
2022-08-03T13:58:45.639Z,32.09
2022-08-03T14:01:12.910Z,32.25
2022-08-03T14:03:40.039Z,32.68
2022-08-03T14:06:07.179Z,32.85
2022-08-03T14:08:34.444Z,33.19
2022-08-03T14:11:01.545Z,33.45
2022-08-03T14:13:28.718Z,33.32
2022-08-03T14:15:55.815Z,32.97
2022-08-03T14:18:28.577Z,33.26
2022-08-03T14:21:05.955Z,33.55
2022-08-03T14:23:34.983Z,33.54
2022-08-03T14:26:02.225Z,33.40
2022-08-03T14:28:29.338Z,33.40
2022-08-03T14:30:56.510Z,33.97
2022-08-03T14:33:24.112Z,33.93
2022-08-03T14:35:52.300Z,33.91
2022-08-03T14:38:20.235Z,33.56
2022-08-03T14:40:47.681Z,33.98
2022-08-03T14:43:16.449Z,34.03
2022-08-03T14:45:43.816Z,33.70
2022-08-03T14:50:34.938Z,33.19
2022-08-03T14:50:59.588Z,33.59
2022-08-03T14:53:26.707Z,33.38
2022-08-03T14:55:53.910Z,33.47
2022-08-03T14:58:22.549Z,36.85
2022-08-03T15:00:54.377Z,44.68
2022-08-03T15:03:24.520Z,43.05
2022-08-03T15:05:56.753Z,46.17
2022-08-03T15:08:25.531Z,49.11
2022-08-03T15:10:54.209Z,48.65
2022-08-03T15:13:21.720Z,48.85
2022-08-03T15:15:49.659Z,49.09
2022-08-03T15:18:17.975Z,47.90
2022-08-03T15:20:46.534Z,49.90
2022-08-03T15:23:15.508Z,51.57
2022-08-03T15:26:03.759Z,53.24
2022-08-03T15:28:34.042Z,52.41
2022-08-03T15:31:01.753Z,51.13
2022-08-03T15:33:29.295Z,51.94
2022-08-03T15:35:56.844Z,52.94
2022-08-03T15:38:25.940Z,51.27
2022-08-03T15:40:54.613Z,46.03
2022-08-03T15:43:23.119Z,47.47
2022-08-03T15:46:12.659Z,47.86
2022-08-03T15:48:38.005Z,45.25
2022-08-03T15:51:05.617Z,48.90
2022-08-03T15:53:33.624Z,48.84
2022-08-03T15:56:03.317Z,51.35
2022-08-03T15:59:10.361Z,53.59
2022-08-03T16:01:21.364Z,50.86
2022-08-03T16:03:48.563Z,50.90
2022-08-03T16:06:15.881Z,52.08
2022-08-03T16:08:43.072Z,51.44
2022-08-03T16:11:11.047Z,50.54
2022-08-03T16:14:13.596Z,48.30
2022-08-03T16:16:25.221Z,48.08
2022-08-03T16:18:52.458Z,47.52
2022-08-03T16:21:21.794Z,48.29
2022-08-03T16:23:51.552Z,48.22
2022-08-03T16:26:18.637Z,48.10
2022-08-03T16:28:45.733Z,46.78
2022-08-03T16:31:12.865Z,47.02
2022-08-03T16:33:40.146Z,47.21
2022-08-03T16:36:07.282Z,46.80
2022-08-03T16:38:34.357Z,46.05
2022-08-03T16:41:01.429Z,47.01
2022-08-03T16:43:28.577Z,45.29
2022-08-03T16:45:55.746Z,46.60
2022-08-03T16:48:22.866Z,50.13
2022-08-03T16:50:50.146Z,49.74
2022-08-03T16:53:18.589Z,50.45
2022-08-03T16:56:00.556Z,50.77
2022-08-03T16:58:41.861Z,52.48
2022-08-03T17:01:22.476Z,51.35
2022-08-03T17:04:01.919Z,50.33
2022-08-03T17:06:38.038Z,50.37
2022-08-03T17:09:20.958Z,50.18
2022-08-03T17:11:49.857Z,48.01
2022-08-03T17:14:21.958Z,47.56
2022-08-03T17:16:52.549Z,48.36
2022-08-03T17:19:23.284Z,49.27
2022-08-03T17:22:01.683Z,48.63
2022-08-03T17:24:37.535Z,45.18
2022-08-03T17:27:18.495Z,44.70
2022-08-03T17:30:12.194Z,43.26
2022-08-03T17:32:57.634Z,42.17
2022-08-03T17:35:34.452Z,42.38
2022-08-03T17:38:08.937Z,42.02
2022-08-03T17:40:40.086Z,41.45
2022-08-03T17:44:13.533Z,40.06
2022-08-03T17:46:07.178Z,38.73
2022-08-03T17:48:34.640Z,38.65
2022-08-03T17:51:17.790Z,37.39
2022-08-03T17:53:52.139Z,37.35
2022-08-03T17:56:46.029Z,37.15
2022-08-03T17:59:51.661Z,37.15
2022-08-03T18:02:47.565Z,37.01
2022-08-03T18:05:18.295Z,36.75
2022-08-03T18:08:00.855Z,36.31
2022-08-03T18:10:34.915Z,35.73
2022-08-03T18:13:10.249Z,35.55
2022-08-03T18:15:43.243Z,35.38
2022-08-03T18:18:14.137Z,34.88
2022-08-03T18:20:45.540Z,35.18
2022-08-03T18:23:25.493Z,35.44
2022-08-03T18:26:04.904Z,35.31
2022-08-03T18:28:34.764Z,35.28
2022-08-03T18:31:06.105Z,34.95
2022-08-03T18:34:18.954Z,34.87
2022-08-03T18:36:30.588Z,34.71
2022-08-03T18:39:00.361Z,34.50
2022-08-03T18:41:35.024Z,34.24
2022-08-03T18:44:08.241Z,34.21
2022-08-03T18:46:49.869Z,34.21
2022-08-03T18:49:35.711Z,34.27
2022-08-03T18:52:13.220Z,34.27
2022-08-03T18:55:02.459Z,34.20
2022-08-03T18:57:48.701Z,33.82
2022-08-03T19:00:17.477Z,33.63
2022-08-03T19:03:06.999Z,33.40
2022-08-03T19:06:02.277Z,33.29
2022-08-03T19:08:45.313Z,33.11
2022-08-03T19:11:29.998Z,32.99
2022-08-03T19:14:23.057Z,32.64
2022-08-03T19:17:08.585Z,32.68
2022-08-03T19:19:43.995Z,32.51
2022-08-03T19:22:16.040Z,32.16
2022-08-03T19:24:45.374Z,32.31
2022-08-03T19:27:13.290Z,32.15
2022-08-03T19:29:59.048Z,31.97
2022-08-03T19:32:29.002Z,32.17
2022-08-03T19:34:57.425Z,31.83
2022-08-03T19:37:38.094Z,31.73
2022-08-03T19:40:10.327Z,31.66
2022-08-03T19:43:19.725Z,31.62
2022-08-03T19:46:04.411Z,31.47
2022-08-03T19:48:36.584Z,30.99
2022-08-03T19:51:12.537Z,30.63
2022-08-03T19:53:43.210Z,30.78
2022-08-03T19:56:15.394Z,30.03
2022-08-03T19:58:43.257Z,29.86
2022-08-03T20:01:19.194Z,29.70
2022-08-03T20:03:48.418Z,29.58
2022-08-03T20:06:17.887Z,29.52
2022-08-03T20:08:45.839Z,29.88
2022-08-03T20:11:18.760Z,29.92
2022-08-03T20:13:49.025Z,29.80
2022-08-03T20:16:16.163Z,29.85
2022-08-03T20:18:43.392Z,29.90
2022-08-03T20:21:15.566Z,29.81
2022-08-03T20:23:58.088Z,29.80
2022-08-03T20:26:32.953Z,29.80
2022-08-03T20:29:10.051Z,29.30
2022-08-03T20:31:40.212Z,29.31
2022-08-03T20:34:07.427Z,29.37
2022-08-03T20:36:36.404Z,28.99
2022-08-03T20:39:07.746Z,28.95
2022-08-03T20:41:36.482Z,28.96
2022-08-03T20:44:04.607Z,29.09
2022-08-03T20:46:43.182Z,29.21
2022-08-03T20:49:23.107Z,29.09
2022-08-03T20:51:52.723Z,28.80
2022-08-03T20:54:29.621Z,28.77
2022-08-03T20:57:03.990Z,28.76
2022-08-03T20:59:50.192Z,28.73
2022-08-03T21:05:09.306Z,28.30
2022-08-03T21:08:05.854Z,28.43
2022-08-03T21:10:38.499Z,28.34
2022-08-03T21:16:06.921Z,28.30
2022-08-03T21:18:42.278Z,27.96
2022-08-03T21:21:13.806Z,27.86
2022-08-03T21:23:48.920Z,27.91
2022-08-03T21:26:22.552Z,27.73
2022-08-03T21:28:51.492Z,27.59
2022-08-03T21:31:24.563Z,27.75
2022-08-03T21:33:58.229Z,27.85
2022-08-03T21:36:32.572Z,27.74
2022-08-03T21:39:00.577Z,27.69
2022-08-03T21:41:32.033Z,27.53
2022-08-03T21:44:00.163Z,26.92
2022-08-03T21:46:33.926Z,26.78
2022-08-03T21:50:07.262Z,27.02
2022-08-03T21:51:53.501Z,27.10
2022-08-03T21:54:23.294Z,26.98
2022-08-03T21:56:51.738Z,27.09
2022-08-03T21:59:20.280Z,27.09
2022-08-03T22:01:51.309Z,27.07
2022-08-03T22:04:50.651Z,26.86
2022-08-03T22:07:09.192Z,26.53
2022-08-03T22:09:37.062Z,26.08
2022-08-03T22:12:04.834Z,26.33
2022-08-03T22:14:34.958Z,26.55
2022-08-03T22:17:03.547Z,26.57
2022-08-03T22:19:33.541Z,26.51
2022-08-03T22:22:04.455Z,26.52
2022-08-03T22:24:32.713Z,26.41
2022-08-03T22:27:21.069Z,26.26
2022-08-03T22:29:49.431Z,26.17
2022-08-03T22:32:16.570Z,26.18
2022-08-03T22:34:46.473Z,26.27
2022-08-03T22:37:17.120Z,26.18
2022-08-03T22:39:44.873Z,26.30
2022-08-03T22:42:12.891Z,25.79
2022-08-03T22:44:40.119Z,25.79
2022-08-03T22:47:09.527Z,26.01
2022-08-03T22:49:37.737Z,25.65
2022-08-03T22:52:05.683Z,25.86
2022-08-03T22:54:33.276Z,25.71
2022-08-03T22:57:00.967Z,25.66
2022-08-03T22:59:40.195Z,25.77
2022-08-03T23:02:21.005Z,25.84
2022-08-03T23:04:54.966Z,25.70
2022-08-03T23:07:31.387Z,25.54
2022-08-03T23:10:01.162Z,25.39
2022-08-03T23:12:30.576Z,25.31
2022-08-03T23:15:01.464Z,25.30
2022-08-03T23:17:31.470Z,25.48
2022-08-03T23:20:04.087Z,25.52
2022-08-03T23:22:31.377Z,25.27
2022-08-03T23:24:59.306Z,25.43
2022-08-03T23:27:27.598Z,25.40
2022-08-03T23:29:58.336Z,25.29
2022-08-03T23:32:27.133Z,25.27
2022-08-03T23:35:19.144Z,25.04
2022-08-03T23:38:05.284Z,25.03
2022-08-03T23:40:35.089Z,25.22
2022-08-03T23:43:03.460Z,25.16
2022-08-03T23:45:35.124Z,24.78
2022-08-03T23:48:02.295Z,24.54
2022-08-03T23:50:40.285Z,24.57
2022-08-03T23:53:18.233Z,24.50
2022-08-03T23:56:06.311Z,24.74
2022-08-03T23:58:48.295Z,24.79
